Impacts METAR Board INFO
IDs:

KMDW - Chicago/Midway Intl, IL, US

Updated at: 1448 UTC 16 Dec 2017
Potential Impact None Slight Moderate High
Time16/02Z 16/03Z 16/04Z 16/05Z 16/06Z 16/07Z 16/08Z 16/09Z 16/10Z 16/11Z 16/12Z 16/13Z 16/14Z
VIS10 10 10 10 10 10 10 10 10 10 10 10 10
CIG41 50 60 90 95 70 100 90 140 100 95 150 --
CoverOVCOVCOVCOVCOVCOVCOVCOVCOVCOVCOVCBKNSCT
FltCatVFRVFRVFRVFRVFRVFRVFRVFRVFRVFRVFRVFRVFR
WX--------------------------
WDir220230210220230220200220210220210210190
WSpd9 10 10 11 11 12 9 10 11 11 10 8 7
WGst-- -- -- -- -- -- -- -- -- 18 -- -- --
Raw hourly METARs
KMDW 160153Z 22009KT 10SM OVC041 02/M06 A2992 RMK AO2 SNE36 SLP144 P0000 T00171056
KMDW 160253Z 23010KT 10SM OVC050 02/M06 A2992 RMK AO2 SLP141 60000 T00171056 58000
KMDW 160353Z 21010KT 10SM OVC060 02/M06 A2990 RMK AO2 SLP135 T00221056
KMDW 160453Z 22011KT 10SM FEW065 OVC090 03/M06 A2990 RMK AO2 SLP134 T00331056
KMDW 160553Z 23011KT 10SM OVC095 03/M06 A2989 RMK AO2 SLP131 60000 T00331061 10033 20011 400331061 56009
KMDW 160653Z 22012KT 10SM BKN070 OVC090 03/M06 A2989 RMK AO2 SLP130 T00331061
KMDW 160753Z 20009KT 10SM OVC100 03/M06 A2986 RMK AO2 SLP123 T00281056
KMDW 160853Z 22010KT 10SM OVC090 03/M05 A2986 RMK AO2 SLP121 T00331050 58010
KMDW 160953Z 21011KT 10SM SCT095 OVC140 03/M04 A2984 RMK AO2 SLP115 T00331044
KMDW 161053Z 22011G18KT 10SM OVC100 03/M04 A2984 RMK AO2 SLP113 T00331039
KMDW 161153Z 21010KT 10SM BKN095 OVC150 03/M04 A2985 RMK AO2 SLP116 T00281039 10033 20028 55004
KMDW 161253Z 21008KT 10SM FEW095 BKN150 02/M04 A2987 RMK AO2 SLP124 T00171039
KMDW 161353Z 19007KT 10SM FEW095 FEW150 SCT250 02/M04 A2987 RMK AO2 SLP124 T00171039